Mount Jewett, Pennsylvania
Current Conditions -  °F | °C
As of 5:26 PM on Friday 19 Dec 2014 (Local Time) from KBFD Reporting Station
Overcast Overcast  
Wind Chill: 12°   Ceiling: 1000
Heat Index: 22°   Visibility: 10mi
Dew Point: 18°   Wind: 9mph
Humidity: 85%   Direction: 300°WNW
Pressure: 30.14"   Gusts: NA
Location:  41.73°N, 78.64°W
Report Text: KBFD 192226Z AUTO 30008KT 10SM OVC010 M06/M08 A3014 RMK AO2 T10561078
Loading
Personal Weather Stations






























Interactive Weather Map New forecast layout! Learn more

10-Day Weather Forecast

Advertisements
Track Severe Weather on mobile